Eira — OJJP — position and weather

sailwx.info

Track history (hours):
 
Tides and Currents Weather Stations Pressure Air Temp Water Temp Dewpoint Dewpoint Depression Visibility Wind Speed Wind Dir Waves Ship Positions

Eira

Last reported at 2017-Mar-29 22:33 UTC. Time now 2017-Mar-29 23:00 UTC.
Position N 60°01' E 029°20'.

Length 157 m; draft 6.5 m.

Type: Cargo ship. MMSI: 230935000.

Date/timePositionNaut miles runAvg speedWind from/ knotsBaromVisibWave heightAir tempDewpointWater temp
2017-Mar-29 22:33N 60°01' E 029°20'0 0.0
2017-Mar-29 21:30N 60°01' E 029°20'0 0.0
2017-Mar-29 20:30N 60°01' E 029°20'0 0.0
2017-Mar-29 19:29N 60°01' E 029°20'0 0.0
2017-Mar-29 18:33N 60°01' E 029°20'0 0.0
2017-Mar-29 17:29N 60°01' E 029°20'0 0.0
2017-Mar-29 16:26N 60°01' E 029°20'0 0.0
2017-Mar-29 15:33N 60°01' E 029°20'0 0.0
2017-Mar-29 14:33N 60°01' E 029°20'0 0.0
2017-Mar-29 10:33N 60°01' E 029°20'0 0.0
2017-Mar-29 09:29N 60°01' E 029°20'0 0.0
2017-Mar-29 08:33N 60°01' E 029°20'0 0.0
2017-Mar-29 07:33N 60°01' E 029°20'0 0.0
2017-Mar-29 06:30N 60°01' E 029°20'0 0.0
2017-Mar-29 05:29N 60°01' E 029°20'0 0.0
2017-Mar-29 04:31N 60°01' E 029°20'0 0.0
2017-Mar-29 03:33N 60°01' E 029°20'0 0.0
2017-Mar-29 02:33N 60°01' E 029°20'0 0.0
2017-Mar-29 01:32N 60°01' E 029°20'0 0.0
2017-Mar-29 00:33N 60°01' E 029°20'8 7.6
2017-Mar-28 23:27N 60°02' E 029°04'910.6
2017-Mar-28 22:33N 60°02' E 028°45'10 9.7
2017-Mar-28 21:33N 60°03' E 028°25'1110.7
2017-Mar-28 20:33N 60°08' E 028°07'1111.1
2017-Mar-28 19:33N 60°10' E 027°45'1211.7
2017-Mar-28 18:33N 60°04' E 027°24'1111.4
2017-Mar-28 17:33N 59°58' E 027°05'1111.3
2017-Mar-28 16:33N 59°59' E 026°43'1111.4
2017-Mar-28 15:33N 59°57' E 026°20'8011.4
2017-Mar-28 08:29N 59°40' E 023°44'1111.5
2017-Mar-28 07:31N 59°39' E 023°22'3711.3
2017-Mar-28 04:12N 59°35' E 022°09'711.2
2017-Mar-28 03:33N 59°35' E 021°54'1111.3
2017-Mar-28 02:33N 59°35' E 021°32'1111.2
2017-Mar-28 01:33N 59°44' E 021°21'1511.8
2017-Mar-28 00:19N 59°56' E 021°39'0 0.0
2017-Mar-27 00:06N 59°56' E 021°39'712.8
2017-Mar-26 23:33N 59°52' E 021°27'9 9.2
2017-Mar-26 22:32N 59°43' E 021°22'1111.6
2017-Mar-26 21:33N 59°34' E 021°36'1211.7
2017-Mar-26 20:33N 59°33' E 021°60'3812.5
2017-Mar-26 17:28N 59°40' E 023°14'1112.4
2017-Mar-26 16:33N 59°42' E 023°36'1412.4
2017-Mar-26 15:26N 59°45' E 024°03'7212.1
2017-Mar-26 09:30N 60°00' E 026°23'1111.7
2017-Mar-26 08:33N 60°01' E 026°45'1111.1
2017-Mar-26 07:33N 60°01' E 027°08'1211.6
2017-Mar-26 06:33N 60°07' E 027°28'1111.2
2017-Mar-26 05:33N 60°11' E 027°48'1111.2
2017-Mar-26 04:33N 60°09' E 028°10'1211.7
2017-Mar-26 03:33N 60°03' E 028°31'9 8.8
2017-Mar-26 02:33N 59°54' E 028°32'1110.8
2017-Mar-26 01:33N 59°44' E 028°25'3 2.8
2017-Mar-26 00:33N 59°41' E 028°25'0 0.0
2017-Mar-25 23:33N 59°41' E 028°25'0 0.0
2017-Mar-25 22:33N 59°41' E 028°25'0 0.0
2017-Mar-25 21:33N 59°41' E 028°25'0 0.0
2017-Mar-25 20:33N 59°41' E 028°25'0 0.0
2017-Mar-25 19:24N 59°41' E 028°25'0 0.0
2017-Mar-25 18:27N 59°41' E 028°25'0 0.0
2017-Mar-25 17:27N 59°41' E 028°25'0 0.0
2017-Mar-25 16:27N 59°41' E 028°25'0 0.0
2017-Mar-25 15:30N 59°41' E 028°25'0 0.0
2017-Mar-25 14:30N 59°41' E 028°25'0 0.0
2017-Mar-25 13:30N 59°41' E 028°25'0 0.0
2017-Mar-25 12:33N 59°41' E 028°25'0 0.0
2017-Mar-25 11:33N 59°41' E 028°25'0 0.0
2017-Mar-25 10:33N 59°41' E 028°25'0 0.0
2017-Mar-25 09:33N 59°41' E 028°25'0 0.0
2017-Mar-25 08:33N 59°41' E 028°25'0 0.0
2017-Mar-25 07:33N 59°41' E 028°25'0 0.0
2017-Mar-25 06:33N 59°41' E 028°25'0 0.0
2017-Mar-25 05:21N 59°41' E 028°25'0 0.0
2017-Mar-25 04:24N 59°41' E 028°25'0 0.0
2017-Mar-25 03:27N 59°41' E 028°25'0 0.0
2017-Mar-25 02:27N 59°41' E 028°25'0 0.0
2017-Mar-25 01:30N 59°41' E 028°25'0 0.0
2017-Mar-25 00:30N 59°41' E 028°25'0 0.0
2017-Mar-24 23:30N 59°41' E 028°25'2 1.7
2017-Mar-24 22:33N 59°43' E 028°23'5 4.9
2017-Mar-24 21:33N 59°45' E 028°15'9 9.1
2017-Mar-24 20:33N 59°54' E 028°10'9 9.0
2017-Mar-24 19:33N 60°03' E 028°07'9 9.6
2017-Mar-24 18:34N 60°10' E 027°54'1010.1
2017-Mar-24 17:33N 60°07' E 027°34'1110.9
2017-Mar-24 16:33N 60°01' E 027°16'1110.4
2017-Mar-24 15:31N 59°58' E 026°55'1010.8
2017-Mar-24 14:33N 59°59' E 026°34'1111.5
2017-Mar-24 13:33N 59°56' E 026°12'28 0.8
2017-Mar-23 01:29N 59°59' E 025°16'9 8.6
2017-Mar-23 00:25N 59°57' E 025°34'8 8.7
2017-Mar-22 23:33N 59°58' E 025°49'19 9.5
2017-Mar-22 21:32N 60°00' E 026°27'9 8.9
2017-Mar-22 20:33N 60°01' E 026°44'19 8.6
2017-Mar-22 18:22N 60°05' E 027°21'9 8.7
2017-Mar-22 17:16N 60°10' E 027°37'6 8.3
2017-Mar-22 16:33N 60°12' E 027°49'9 9.2
2017-Mar-22 15:33N 60°09' E 028°06'9 9.3
2017-Mar-22 14:34N 60°05' E 028°23'8 8.4
2017-Mar-22 13:33N 59°60' E 028°36'8 8.2
2017-Mar-22 12:33N 59°52' E 028°29'1010.0
2017-Mar-22 11:34N 59°42' E 028°25'1 1.0
2017-Mar-22 10:33N 59°41' E 028°25'0 0.0
2017-Mar-22 09:24N 59°41' E 028°25'0 0.0
2017-Mar-22 08:27N 59°41' E 028°25'0 0.0
2017-Mar-22 07:27N 59°41' E 028°25'0 0.0
2017-Mar-22 06:24N 59°41' E 028°25'0 0.0
2017-Mar-22 05:30N 59°41' E 028°25'0 0.0
2017-Mar-22 04:30N 59°41' E 028°25'0 0.0
2017-Mar-22 03:30N 59°41' E 028°25'0 0.0
2017-Mar-22 02:33N 59°41' E 028°25'0 0.0
2017-Mar-22 01:33N 59°41' E 028°25'0 0.0
2017-Mar-22 00:33N 59°41' E 028°25'0 0.0
2017-Mar-21 23:33N 59°41' E 028°25'0 0.0
2017-Mar-21 22:21N 59°41' E 028°25'0 0.0
2017-Mar-21 21:33N 59°41' E 028°25'0 0.0
2017-Mar-21 20:33N 59°41' E 028°25'0 0.0
2017-Mar-21 19:24N 59°41' E 028°25'0 0.0
2017-Mar-21 18:27N 59°41' E 028°25'0 0.0
2017-Mar-21 17:27N 59°41' E 028°25'0 0.0
2017-Mar-21 16:27N 59°41' E 028°25'0 0.0
2017-Mar-21 15:30N 59°41' E 028°25'0 0.0
2017-Mar-21 14:30N 59°41' E 028°25'0 0.0
2017-Mar-21 13:30N 59°41' E 028°25'0 0.0
2017-Mar-21 12:33N 59°41' E 028°25'0 0.0
2017-Mar-21 11:33N 59°41' E 028°25'4 4.0
2017-Mar-21 10:33N 59°42' E 028°18'1111.0
2017-Mar-21 09:33N 59°53' E 028°10'1212.3
2017-Mar-21 08:33N 60°05' E 028°06'1110.6
2017-Mar-21 07:33N 60°10' E 027°48'1212.0
2017-Mar-21 06:33N 60°05' E 027°27'1312.4
2017-Mar-21 05:28N 59°58' E 027°04'1112.1
2017-Mar-21 04:33N 59°59' E 026°42'1212.2
2017-Mar-21 03:33N 59°57' E 026°18'13712.4
2017-Mar-20 16:33N 59°35' E 021°50'1310.9
2017-Mar-20 15:22N 59°39' E 021°25'911.2
2017-Mar-20 14:33N 59°48' E 021°21'  
Track history (hours):
 
Tides and Currents Weather Stations Pressure Air Temp Water Temp Dewpoint Dewpoint Depression Visibility Wind Speed Wind Dir Waves Ship Positions

Eira

Last reported at 2017-Mar-29 22:33 UTC. Time now 2017-Mar-29 23:00 UTC.
Position N 60°01' E 029°20'.

Length 157 m; draft 6.5 m.

Type: Cargo ship. MMSI: 230935000.

Date/timePositionNaut miles runAvg speedWind from/ knotsBaromVisibWave heightAir tempDewpointWater temp
2017-Mar-29 22:33N 60°01' E 029°20'0 0.0
2017-Mar-29 21:30N 60°01' E 029°20'0 0.0
2017-Mar-29 20:30N 60°01' E 029°20'0 0.0
2017-Mar-29 19:29N 60°01' E 029°20'0 0.0
2017-Mar-29 18:33N 60°01' E 029°20'0 0.0
2017-Mar-29 17:29N 60°01' E 029°20'0 0.0
2017-Mar-29 16:26N 60°01' E 029°20'0 0.0
2017-Mar-29 15:33N 60°01' E 029°20'0 0.0
2017-Mar-29 14:33N 60°01' E 029°20'0 0.0
2017-Mar-29 10:33N 60°01' E 029°20'0 0.0
2017-Mar-29 09:29N 60°01' E 029°20'0 0.0
2017-Mar-29 08:33N 60°01' E 029°20'0 0.0
2017-Mar-29 07:33N 60°01' E 029°20'0 0.0
2017-Mar-29 06:30N 60°01' E 029°20'0 0.0
2017-Mar-29 05:29N 60°01' E 029°20'0 0.0
2017-Mar-29 04:31N 60°01' E 029°20'0 0.0
2017-Mar-29 03:33N 60°01' E 029°20'0 0.0
2017-Mar-29 02:33N 60°01' E 029°20'0 0.0
2017-Mar-29 01:32N 60°01' E 029°20'0 0.0
2017-Mar-29 00:33N 60°01' E 029°20'8 7.6
2017-Mar-28 23:27N 60°02' E 029°04'910.6
2017-Mar-28 22:33N 60°02' E 028°45'10 9.7
2017-Mar-28 21:33N 60°03' E 028°25'1110.7
2017-Mar-28 20:33N 60°08' E 028°07'1111.1
2017-Mar-28 19:33N 60°10' E 027°45'1211.7
2017-Mar-28 18:33N 60°04' E 027°24'1111.4
2017-Mar-28 17:33N 59°58' E 027°05'1111.3
2017-Mar-28 16:33N 59°59' E 026°43'1111.4
2017-Mar-28 15:33N 59°57' E 026°20'8011.4
2017-Mar-28 08:29N 59°40' E 023°44'1111.5
2017-Mar-28 07:31N 59°39' E 023°22'3711.3
2017-Mar-28 04:12N 59°35' E 022°09'711.2
2017-Mar-28 03:33N 59°35' E 021°54'1111.3
2017-Mar-28 02:33N 59°35' E 021°32'1111.2
2017-Mar-28 01:33N 59°44' E 021°21'1511.8
2017-Mar-28 00:19N 59°56' E 021°39'0 0.0
2017-Mar-27 00:06N 59°56' E 021°39'712.8
2017-Mar-26 23:33N 59°52' E 021°27'9 9.2
2017-Mar-26 22:32N 59°43' E 021°22'1111.6
2017-Mar-26 21:33N 59°34' E 021°36'1211.7
2017-Mar-26 20:33N 59°33' E 021°60'3812.5
2017-Mar-26 17:28N 59°40' E 023°14'1112.4
2017-Mar-26 16:33N 59°42' E 023°36'1412.4
2017-Mar-26 15:26N 59°45' E 024°03'7212.1
2017-Mar-26 09:30N 60°00' E 026°23'1111.7
2017-Mar-26 08:33N 60°01' E 026°45'1111.1
2017-Mar-26 07:33N 60°01' E 027°08'1211.6
2017-Mar-26 06:33N 60°07' E 027°28'1111.2
2017-Mar-26 05:33N 60°11' E 027°48'1111.2
2017-Mar-26 04:33N 60°09' E 028°10'1211.7
2017-Mar-26 03:33N 60°03' E 028°31'9 8.8
2017-Mar-26 02:33N 59°54' E 028°32'1110.8
2017-Mar-26 01:33N 59°44' E 028°25'3 2.8
2017-Mar-26 00:33N 59°41' E 028°25'0 0.0
2017-Mar-25 23:33N 59°41' E 028°25'0 0.0
2017-Mar-25 22:33N 59°41' E 028°25'0 0.0
2017-Mar-25 21:33N 59°41' E 028°25'0 0.0
2017-Mar-25 20:33N 59°41' E 028°25'0 0.0
2017-Mar-25 19:24N 59°41' E 028°25'0 0.0
2017-Mar-25 18:27N 59°41' E 028°25'0 0.0
2017-Mar-25 17:27N 59°41' E 028°25'0 0.0
2017-Mar-25 16:27N 59°41' E 028°25'0 0.0
2017-Mar-25 15:30N 59°41' E 028°25'0 0.0
2017-Mar-25 14:30N 59°41' E 028°25'0 0.0
2017-Mar-25 13:30N 59°41' E 028°25'0 0.0
2017-Mar-25 12:33N 59°41' E 028°25'0 0.0
2017-Mar-25 11:33N 59°41' E 028°25'0 0.0
2017-Mar-25 10:33N 59°41' E 028°25'0 0.0
2017-Mar-25 09:33N 59°41' E 028°25'0 0.0
2017-Mar-25 08:33N 59°41' E 028°25'0 0.0
2017-Mar-25 07:33N 59°41' E 028°25'0 0.0
2017-Mar-25 06:33N 59°41' E 028°25'0 0.0
2017-Mar-25 05:21N 59°41' E 028°25'0 0.0
2017-Mar-25 04:24N 59°41' E 028°25'0 0.0
2017-Mar-25 03:27N 59°41' E 028°25'0 0.0
2017-Mar-25 02:27N 59°41' E 028°25'0 0.0
2017-Mar-25 01:30N 59°41' E 028°25'0 0.0
2017-Mar-25 00:30N 59°41' E 028°25'0 0.0
2017-Mar-24 23:30N 59°41' E 028°25'2 1.7
2017-Mar-24 22:33N 59°43' E 028°23'5 4.9
2017-Mar-24 21:33N 59°45' E 028°15'9 9.1
2017-Mar-24 20:33N 59°54' E 028°10'9 9.0
2017-Mar-24 19:33N 60°03' E 028°07'9 9.6
2017-Mar-24 18:34N 60°10' E 027°54'1010.1
2017-Mar-24 17:33N 60°07' E 027°34'1110.9
2017-Mar-24 16:33N 60°01' E 027°16'1110.4
2017-Mar-24 15:31N 59°58' E 026°55'1010.8
2017-Mar-24 14:33N 59°59' E 026°34'1111.5
2017-Mar-24 13:33N 59°56' E 026°12'28 0.8
2017-Mar-23 01:29N 59°59' E 025°16'9 8.6
2017-Mar-23 00:25N 59°57' E 025°34'8 8.7
2017-Mar-22 23:33N 59°58' E 025°49'19 9.5
2017-Mar-22 21:32N 60°00' E 026°27'9 8.9
2017-Mar-22 20:33N 60°01' E 026°44'19 8.6
2017-Mar-22 18:22N 60°05' E 027°21'9 8.7
2017-Mar-22 17:16N 60°10' E 027°37'6 8.3
2017-Mar-22 16:33N 60°12' E 027°49'9 9.2
2017-Mar-22 15:33N 60°09' E 028°06'9 9.3
2017-Mar-22 14:34N 60°05' E 028°23'8 8.4
2017-Mar-22 13:33N 59°60' E 028°36'8 8.2
2017-Mar-22 12:33N 59°52' E 028°29'1010.0
2017-Mar-22 11:34N 59°42' E 028°25'1 1.0
2017-Mar-22 10:33N 59°41' E 028°25'0 0.0
2017-Mar-22 09:24N 59°41' E 028°25'0 0.0
2017-Mar-22 08:27N 59°41' E 028°25'0 0.0
2017-Mar-22 07:27N 59°41' E 028°25'0 0.0
2017-Mar-22 06:24N 59°41' E 028°25'0 0.0
2017-Mar-22 05:30N 59°41' E 028°25'0 0.0
2017-Mar-22 04:30N 59°41' E 028°25'0 0.0
2017-Mar-22 03:30N 59°41' E 028°25'0 0.0
2017-Mar-22 02:33N 59°41' E 028°25'0 0.0
2017-Mar-22 01:33N 59°41' E 028°25'0 0.0
2017-Mar-22 00:33N 59°41' E 028°25'0 0.0
2017-Mar-21 23:33N 59°41' E 028°25'0 0.0
2017-Mar-21 22:21N 59°41' E 028°25'0 0.0
2017-Mar-21 21:33N 59°41' E 028°25'0 0.0
2017-Mar-21 20:33N 59°41' E 028°25'0 0.0
2017-Mar-21 19:24N 59°41' E 028°25'0 0.0
2017-Mar-21 18:27N 59°41' E 028°25'0 0.0
2017-Mar-21 17:27N 59°41' E 028°25'0 0.0
2017-Mar-21 16:27N 59°41' E 028°25'0 0.0
2017-Mar-21 15:30N 59°41' E 028°25'0 0.0
2017-Mar-21 14:30N 59°41' E 028°25'0 0.0
2017-Mar-21 13:30N 59°41' E 028°25'0 0.0
2017-Mar-21 12:33N 59°41' E 028°25'0 0.0
2017-Mar-21 11:33N 59°41' E 028°25'4 4.0
2017-Mar-21 10:33N 59°42' E 028°18'1111.0
2017-Mar-21 09:33N 59°53' E 028°10'1212.3
2017-Mar-21 08:33N 60°05' E 028°06'1110.6
2017-Mar-21 07:33N 60°10' E 027°48'1212.0
2017-Mar-21 06:33N 60°05' E 027°27'1312.4
2017-Mar-21 05:28N 59°58' E 027°04'1112.1
2017-Mar-21 04:33N 59°59' E 026°42'1212.2
2017-Mar-21 03:33N 59°57' E 026°18'13712.4
2017-Mar-20 16:33N 59°35' E 021°50'1310.9
2017-Mar-20 15:22N 59°39' E 021°25'911.2
2017-Mar-20 14:33N 59°48' E 021°21'  

Dump ship's entire track history